createdAt,value
2019-06-10T00:02:04.187Z,100863.92
2019-06-10T00:04:33.292Z,100858.80
2019-06-10T00:07:04.160Z,100851.95
2019-06-10T00:09:33.879Z,100842.91
2019-06-10T00:12:04.750Z,100845.75
2019-06-10T00:14:34.312Z,100840.67
2019-06-10T00:17:05.097Z,100842.12
2019-06-10T00:19:34.776Z,100833.55
2019-06-10T00:22:06.579Z,100831.16
2019-06-10T00:24:35.315Z,100830.91
2019-06-10T00:27:07.220Z,100825.84
2019-06-10T00:29:36.737Z,100823.34
2019-06-10T00:32:08.162Z,100824.26
2019-06-10T00:34:37.311Z,100818.69
2019-06-10T00:37:09.001Z,100812.68
2019-06-10T00:39:37.723Z,100809.72
2019-06-10T00:42:09.589Z,100817.65
2019-06-10T00:44:38.192Z,100811.16
2019-06-10T00:47:09.291Z,100809.45
2019-06-10T00:49:40.801Z,100807.31
2019-06-10T00:52:12.213Z,100800.36
2019-06-10T00:54:41.792Z,100793.37
2019-06-10T00:57:12.395Z,100803.03
2019-06-10T00:59:42.220Z,100801.71
2019-06-10T01:02:14.064Z,100799.48
2019-06-10T01:04:42.657Z,100805.02
2019-06-10T01:07:14.697Z,100800.91
2019-06-10T01:09:43.111Z,100805.52
2019-06-10T01:12:14.753Z,100798.32
2019-06-10T01:14:43.511Z,100793.36
2019-06-10T01:17:15.233Z,100791.53
2019-06-10T01:19:43.912Z,100789.26
2019-06-10T01:22:14.211Z,100783.48
2019-06-10T01:24:44.342Z,100788.72
2019-06-10T01:27:15.108Z,100782.09
2019-06-10T01:29:44.546Z,100781.62
2019-06-10T01:32:15.080Z,100775.44
2019-06-10T01:34:44.645Z,100768.00
2019-06-10T01:37:14.768Z,100759.22
2019-06-10T01:39:45.062Z,100764.97
2019-06-10T01:42:15.908Z,100765.80
2019-06-10T01:44:45.494Z,100760.94
2019-06-10T01:47:16.131Z,100753.44
2019-06-10T01:49:45.942Z,100747.77
2019-06-10T01:52:16.603Z,100743.81
2019-06-10T01:54:46.357Z,100743.41
2019-06-10T01:57:16.931Z,100737.34
2019-06-10T01:59:46.671Z,100726.95
2019-06-10T02:02:19.061Z,100725.84
2019-06-10T02:04:51.644Z,100711.47
2019-06-10T02:07:22.770Z,100711.25
2019-06-10T02:09:51.772Z,100708.36
2019-06-10T02:12:24.164Z,100702.39
2019-06-10T02:14:52.281Z,100699.02
2019-06-10T02:17:23.863Z,100694.70
2019-06-10T02:19:52.720Z,100692.98
2019-06-10T02:22:24.275Z,100689.52
2019-06-10T02:24:53.163Z,100687.80
2019-06-10T02:27:23.238Z,100685.16
2019-06-10T02:29:52.648Z,100679.89
2019-06-10T02:32:31.289Z,100679.83
2019-06-10T02:35:08.095Z,100680.70
2019-06-10T02:37:31.754Z,100691.13
2019-06-10T02:39:56.161Z,100680.16
2019-06-10T02:42:32.488Z,100680.55
2019-06-10T02:45:03.729Z,100671.85
2019-06-10T02:47:37.585Z,100672.30
2019-06-10T02:50:08.807Z,100668.89
2019-06-10T02:52:38.575Z,100674.23
2019-06-10T02:55:06.776Z,100670.31
2019-06-10T02:57:40.085Z,100679.97
2019-06-10T03:00:20.913Z,100674.70
2019-06-10T03:02:45.002Z,100678.17
2019-06-10T03:05:14.475Z,100671.52
2019-06-10T03:07:44.828Z,100670.17
2019-06-10T03:10:16.269Z,100667.50
2019-06-10T03:12:48.026Z,100666.63
2019-06-10T03:15:17.912Z,100666.59
2019-06-10T03:17:47.335Z,100664.80
2019-06-10T03:20:17.836Z,100667.43
2019-06-10T03:22:47.268Z,100669.62
2019-06-10T03:25:16.733Z,100668.70
2019-06-10T03:27:46.181Z,100673.50
2019-06-10T03:30:25.391Z,100673.02
2019-06-10T03:32:47.727Z,100675.70
2019-06-10T03:35:19.244Z,100675.66
2019-06-10T03:37:48.825Z,100672.59
2019-06-10T03:40:18.524Z,100670.87
2019-06-10T03:42:47.988Z,100665.60
2019-06-10T03:45:19.042Z,100660.44
2019-06-10T03:47:48.590Z,100658.77
2019-06-10T03:50:19.214Z,100665.92
2019-06-10T03:52:48.682Z,100661.14
2019-06-10T03:55:19.309Z,100657.80
2019-06-10T03:57:48.787Z,100656.23
2019-06-10T04:00:19.495Z,100659.88
2019-06-10T04:02:49.037Z,100660.53
2019-06-10T04:05:19.439Z,100658.03
2019-06-10T04:07:48.831Z,100654.23
2019-06-10T04:10:19.502Z,100653.05
2019-06-10T04:12:49.036Z,100661.08
2019-06-10T04:15:19.659Z,100657.27
2019-06-10T04:17:49.244Z,100652.55
2019-06-10T04:20:19.788Z,100655.69
2019-06-10T04:22:49.210Z,100652.95
2019-06-10T04:25:19.807Z,100654.13
2019-06-10T04:27:49.470Z,100656.12
2019-06-10T04:30:20.079Z,100652.84
2019-06-10T04:32:49.518Z,100648.72
2019-06-10T04:35:18.888Z,100656.37
2019-06-10T04:37:48.240Z,100654.36
2019-06-10T04:40:18.710Z,100651.48
2019-06-10T04:42:48.456Z,100651.59
2019-06-10T04:45:18.681Z,100651.34
2019-06-10T04:47:48.174Z,100658.98
2019-06-10T04:50:25.043Z,100654.84
2019-06-10T04:52:48.709Z,100652.49
2019-06-10T04:55:18.798Z,100647.91
2019-06-10T04:57:48.194Z,100656.51
2019-06-10T05:00:19.177Z,100646.69
2019-06-10T05:02:48.655Z,100650.94
2019-06-10T05:05:18.989Z,100649.45
2019-06-10T05:07:48.831Z,100646.22
2019-06-10T05:10:19.120Z,100637.73
2019-06-10T05:12:48.574Z,100640.16
2019-06-10T05:15:19.416Z,100640.33
2019-06-10T05:17:49.093Z,100638.41
2019-06-10T05:20:22.309Z,100637.73
2019-06-10T05:22:52.833Z,100633.48
2019-06-10T05:25:23.810Z,100631.48
2019-06-10T05:27:53.761Z,100629.48
2019-06-10T05:30:25.990Z,100622.98
2019-06-10T05:32:54.288Z,100625.23
2019-06-10T05:35:26.593Z,100614.30
2019-06-10T05:37:54.717Z,100624.63
2019-06-10T05:40:25.125Z,100627.48
2019-06-10T05:42:55.185Z,100622.04
2019-06-10T05:45:26.373Z,100614.34
2019-06-10T05:47:55.680Z,100613.22
2019-06-10T05:50:25.591Z,100614.20
2019-06-10T05:52:56.126Z,100606.60
2019-06-10T05:55:25.600Z,100606.17
2019-06-10T05:57:54.967Z,100613.31
2019-06-10T06:00:26.009Z,100615.63
2019-06-10T06:02:55.486Z,100614.49
2019-06-10T06:05:26.062Z,100609.66
2019-06-10T06:08:04.827Z,100618.95
2019-06-10T06:10:27.234Z,100617.29
2019-06-10T06:12:56.687Z,100609.42
2019-06-10T06:15:27.388Z,100610.73
2019-06-10T06:18:09.259Z,100614.25
2019-06-10T06:20:29.269Z,100616.61
2019-06-10T06:22:58.818Z,100619.31
2019-06-10T06:25:29.874Z,100617.39
2019-06-10T06:27:59.253Z,100611.06
2019-06-10T06:30:30.144Z,100608.18
2019-06-10T06:32:59.643Z,100613.55
2019-06-10T06:35:29.041Z,100620.46
2019-06-10T06:37:58.406Z,100623.83
2019-06-10T06:40:29.221Z,100616.08
2019-06-10T06:42:58.561Z,100605.63
2019-06-10T06:45:27.920Z,100604.22
2019-06-10T06:47:57.314Z,100594.70
2019-06-10T06:50:28.345Z,100595.34
2019-06-10T06:53:19.749Z,100591.09
2019-06-10T06:55:31.272Z,100592.84
2019-06-10T06:58:02.988Z,100585.84
2019-06-10T07:00:54.380Z,100579.02
2019-06-10T07:03:06.688Z,100581.75
2019-06-10T07:05:38.950Z,100592.26
2019-06-10T07:08:09.612Z,100581.80
2019-06-10T07:10:41.446Z,100587.81
2019-06-10T07:13:12.869Z,100587.34
2019-06-10T07:15:47.124Z,100583.73
2019-06-10T07:18:15.442Z,100591.07
2019-06-10T07:20:45.806Z,100593.44
2019-06-10T07:23:15.596Z,100594.31
2019-06-10T07:25:47.558Z,100588.12
2019-06-10T07:28:16.053Z,100582.31
2019-06-10T07:30:51.774Z,100581.52
2019-06-10T07:33:17.530Z,100574.31
2019-06-10T07:35:46.913Z,100573.25
2019-06-10T07:38:16.290Z,100578.07
2019-06-10T07:40:45.963Z,100568.34
2019-06-10T07:43:15.541Z,100570.06
2019-06-10T07:45:47.696Z,100561.86
2019-06-10T07:48:16.071Z,100555.55
2019-06-10T07:50:45.920Z,100555.73
2019-06-10T07:53:15.283Z,100554.34
2019-06-10T07:55:46.588Z,100558.05
2019-06-10T07:58:16.146Z,100557.06
2019-06-10T08:00:48.216Z,100554.45
2019-06-10T08:03:16.582Z,100555.66
2019-06-10T08:05:46.740Z,100546.30
2019-06-10T08:08:16.210Z,100539.13
2019-06-10T08:10:46.406Z,100538.45
2019-06-10T08:13:16.666Z,100544.48
2019-06-10T08:15:46.329Z,100546.09
2019-06-10T08:18:15.672Z,100545.84
2019-06-10T08:20:45.522Z,100556.84
2019-06-10T08:23:20.139Z,100550.22
2019-06-10T08:25:54.610Z,100543.81
2019-06-10T08:28:23.033Z,100536.59
2019-06-10T08:30:53.201Z,100522.52
2019-06-10T08:33:22.979Z,100530.66
2019-06-10T08:35:59.918Z,100528.05
2019-06-10T08:38:23.510Z,100527.44
2019-06-10T08:40:53.011Z,100522.95
2019-06-10T08:43:22.756Z,100522.59
2019-06-10T08:45:53.018Z,100523.02
2019-06-10T08:48:22.983Z,100512.70
2019-06-10T08:50:53.513Z,100521.50
2019-06-10T08:53:23.046Z,100509.92
2019-06-10T08:55:53.492Z,100501.39
2019-06-10T08:58:24.363Z,100503.73
2019-06-10T09:00:54.022Z,100508.54
2019-06-10T09:03:23.579Z,100505.77
2019-06-10T09:05:57.675Z,100504.90
2019-06-10T09:08:26.096Z,100496.86
2019-06-10T09:10:55.752Z,100495.28
2019-06-10T09:13:25.158Z,100490.58
2019-06-10T09:16:09.975Z,100481.07
2019-06-10T09:18:25.676Z,100485.64
2019-06-10T09:20:56.228Z,100475.84
2019-06-10T09:23:26.817Z,100475.86
2019-06-10T09:25:57.683Z,100463.23
2019-06-10T09:28:28.209Z,100466.22
2019-06-10T09:30:59.225Z,100466.30
2019-06-10T09:33:28.784Z,100465.44
2019-06-10T09:35:58.174Z,100466.80
2019-06-10T09:38:27.549Z,100460.20
2019-06-10T09:41:01.889Z,100459.09
2019-06-10T09:43:28.497Z,100463.11
2019-06-10T09:45:58.321Z,100463.28
2019-06-10T09:48:27.862Z,100465.84
2019-06-10T09:50:59.125Z,100457.23
2019-06-10T09:53:35.761Z,100457.46
2019-06-10T09:55:59.444Z,100454.03
2019-06-10T09:58:28.876Z,100449.27
2019-06-10T10:01:02.983Z,100446.94
2019-06-10T10:03:32.939Z,100456.43
2019-06-10T10:06:11.515Z,100454.46
2019-06-10T10:08:34.673Z,100445.95
2019-06-10T10:11:04.115Z,100445.67
2019-06-10T10:13:35.423Z,100453.41
2019-06-10T10:16:05.595Z,100462.25
2019-06-10T10:18:36.104Z,100467.01
2019-06-10T10:21:05.584Z,100460.98
2019-06-10T10:23:50.060Z,100454.26
2019-06-10T10:26:05.976Z,100455.31
2019-06-10T10:28:35.339Z,100448.86
2019-06-10T10:31:04.865Z,100449.41
2019-06-10T10:33:34.252Z,100445.78
2019-06-10T10:36:03.694Z,100431.48
2019-06-10T10:38:34.407Z,100436.15
2019-06-10T10:41:13.438Z,100428.92
2019-06-10T10:43:45.311Z,100418.95
2019-06-10T10:46:14.371Z,100416.50
2019-06-10T10:48:44.984Z,100424.97
2019-06-10T10:51:14.465Z,100430.37
2019-06-10T10:53:48.393Z,100429.86
2019-06-10T10:56:14.889Z,100437.77
2019-06-10T10:58:45.897Z,100441.05
2019-06-10T11:01:16.435Z,100438.84
2019-06-10T11:03:48.155Z,100430.59
2019-06-10T11:06:18.467Z,100426.30
2019-06-10T11:08:48.301Z,100425.59
2019-06-10T11:11:18.457Z,100420.05
2019-06-10T11:13:49.380Z,100419.52
2019-06-10T11:16:18.740Z,100413.16
2019-06-10T11:18:49.343Z,100401.36
2019-06-10T11:21:18.861Z,100394.64
2019-06-10T11:23:48.216Z,100387.31
2019-06-10T11:26:17.600Z,100386.58
2019-06-10T11:28:47.436Z,100385.59
2019-06-10T11:31:16.897Z,100379.63
2019-06-10T11:33:46.922Z,100374.84
2019-06-10T11:36:16.307Z,100366.61
2019-06-10T11:38:46.249Z,100362.65
2019-06-10T11:41:15.587Z,100365.02
2019-06-10T11:43:46.258Z,100359.56
2019-06-10T11:46:15.764Z,100358.20
2019-06-10T11:48:45.135Z,100368.59
2019-06-10T11:51:14.580Z,100361.00
2019-06-10T11:53:44.219Z,100369.14
2019-06-10T11:56:14.117Z,100367.77
2019-06-10T11:58:45.043Z,100368.02
2019-06-10T12:01:14.403Z,100362.53
2019-06-10T12:03:43.752Z,100362.91
2019-06-10T12:06:14.635Z,100364.47
2019-06-10T12:08:44.159Z,100355.64
2019-06-10T12:11:13.747Z,100356.45
2019-06-10T12:13:43.189Z,100351.17
2019-06-10T12:18:44.206Z,100333.71
2019-06-10T12:21:13.669Z,100335.91
2019-06-10T12:23:44.121Z,100334.09
2019-06-10T12:26:13.541Z,100332.92
2019-06-10T12:28:43.433Z,100330.94
2019-06-10T12:31:13.736Z,100325.55
2019-06-10T12:33:43.278Z,100324.92
2019-06-10T12:36:13.067Z,100323.94
2019-06-10T12:38:43.426Z,100315.50
2019-06-10T12:41:14.235Z,100317.76
2019-06-10T12:43:43.715Z,100307.83
2019-06-10T12:46:13.083Z,100303.41
2019-06-10T12:48:42.855Z,100297.84
2019-06-10T12:51:13.609Z,100293.21
2019-06-10T12:53:43.568Z,100296.05
2019-06-10T12:56:14.901Z,100297.80
2019-06-10T12:58:47.002Z,100293.34
2019-06-10T13:01:16.566Z,100293.27
2019-06-10T13:03:45.996Z,100294.66
2019-06-10T13:06:16.243Z,100287.07
2019-06-10T13:08:47.562Z,100283.02
2019-06-10T13:11:16.933Z,100284.16
2019-06-10T13:13:46.390Z,100277.52
2019-06-10T13:16:15.750Z,100271.05
2019-06-10T13:18:45.128Z,100276.71
2019-06-10T13:21:17.555Z,100268.88
2019-06-10T13:23:45.640Z,100257.75
2019-06-10T13:26:16.541Z,100248.17
2019-06-10T13:28:46.060Z,100246.12
2019-06-10T13:31:15.442Z,100248.45
2019-06-10T13:33:44.811Z,100251.05
2019-06-10T13:36:14.179Z,100250.34
2019-06-10T13:38:43.523Z,100251.09
2019-06-10T13:41:12.900Z,100254.95
2019-06-10T13:43:43.521Z,100253.02
2019-06-10T13:46:13.180Z,100248.84
2019-06-10T13:48:43.190Z,100245.33
2019-06-10T13:51:15.584Z,100239.61
2019-06-10T13:53:46.277Z,100238.03
2019-06-10T13:56:37.792Z,100237.72
2019-06-10T13:58:46.524Z,100237.24
2019-06-10T14:01:21.449Z,100244.45
2019-06-10T14:03:47.028Z,100232.54
2019-06-10T14:06:33.386Z,100232.16
2019-06-10T14:08:47.506Z,100222.75
2019-06-10T14:11:16.853Z,100214.73
2019-06-10T14:13:46.224Z,100203.19
2019-06-10T14:16:15.603Z,100213.69
2019-06-10T14:18:44.953Z,100222.61
2019-06-10T14:21:18.441Z,100232.52
2019-06-10T14:23:45.391Z,100229.09
2019-06-10T14:26:17.148Z,100217.55
2019-06-10T14:28:45.903Z,100215.84
2019-06-10T14:31:37.405Z,100219.98
2019-06-10T14:33:46.338Z,100222.91
2019-06-10T14:36:16.910Z,100237.75
2019-06-10T14:38:46.487Z,100243.83
2019-06-10T14:41:16.910Z,100247.01
2019-06-10T14:43:46.293Z,100243.72
2019-06-10T14:46:17.567Z,100243.97
2019-06-10T14:48:46.725Z,100251.75
2019-06-10T14:51:17.149Z,100241.56
2019-06-10T14:53:46.720Z,100235.72
2019-06-10T14:56:19.386Z,100236.95
2019-06-10T14:58:47.303Z,100229.03
2019-06-10T15:01:24.093Z,100228.56
2019-06-10T15:03:47.728Z,100228.20
2019-06-10T15:06:17.106Z,100223.80
2019-06-10T15:08:46.526Z,100230.36
2019-06-10T15:11:15.938Z,100224.91
2019-06-10T15:13:45.298Z,100229.58
2019-06-10T15:16:14.678Z,100222.96
2019-06-10T15:18:44.036Z,100214.22
2019-06-10T15:21:13.457Z,100209.54
2019-06-10T15:23:43.117Z,100196.98
2019-06-10T15:26:14.807Z,100195.80
2019-06-10T15:28:43.510Z,100195.36
2019-06-10T15:31:14.795Z,100194.00
2019-06-10T15:33:43.946Z,100198.99
2019-06-10T15:36:13.318Z,100197.08
2019-06-10T15:38:44.063Z,100200.81
2019-06-10T15:41:16.935Z,100190.36
2019-06-10T15:43:44.597Z,100191.83
2019-06-10T15:46:15.881Z,100183.96
2019-06-10T15:48:45.189Z,100174.27
2019-06-10T15:51:17.452Z,100178.14
2019-06-10T15:53:45.572Z,100170.16
2019-06-10T15:56:29.764Z,100173.25
2019-06-10T15:58:46.957Z,100182.73
2019-06-10T16:01:18.810Z,100175.78
2019-06-10T16:03:47.424Z,100182.83
2019-06-10T16:06:18.065Z,100208.15
2019-06-10T16:08:47.488Z,100202.33
2019-06-10T16:11:18.910Z,100211.61
2019-06-10T16:13:47.967Z,100219.05
2019-06-10T16:16:17.344Z,100216.39
2019-06-10T16:18:47.244Z,100222.60
2019-06-10T16:21:17.456Z,100244.23
2019-06-10T16:23:47.774Z,100262.22
2019-06-10T16:26:17.955Z,100262.81
2019-06-10T16:28:47.529Z,100274.37
2019-06-10T16:31:18.258Z,100285.64
2019-06-10T16:33:49.394Z,100291.44
2019-06-10T16:36:19.017Z,100286.70
2019-06-10T16:38:48.851Z,100282.88
2019-06-10T16:41:19.470Z,100278.67
2019-06-10T16:43:48.907Z,100275.13
2019-06-10T16:46:18.316Z,100280.84
2019-06-10T16:48:47.687Z,100277.76
2019-06-10T16:51:17.414Z,100266.42
2019-06-10T16:53:46.889Z,100261.20
2019-06-10T16:56:17.642Z,100260.74
2019-06-10T16:58:48.204Z,100256.56
2019-06-10T17:01:18.366Z,100250.63
2019-06-10T17:03:47.946Z,100247.59
2019-06-10T17:06:17.510Z,100235.95
2019-06-10T17:08:46.881Z,100233.28
2019-06-10T17:11:16.278Z,100227.94
2019-06-10T17:13:45.675Z,100254.13
2019-06-10T17:16:15.064Z,100270.38
2019-06-10T17:18:44.446Z,100265.80
2019-06-10T17:21:14.003Z,100258.09
2019-06-10T17:23:43.773Z,100270.31
2019-06-10T17:26:13.282Z,100282.05
2019-06-10T17:28:42.993Z,100281.02
2019-06-10T17:31:12.517Z,100279.92
2019-06-10T17:33:42.759Z,100274.73
2019-06-10T17:36:12.714Z,100279.85
2019-06-10T17:38:43.144Z,100277.20
2019-06-10T17:41:13.243Z,100273.47
2019-06-10T17:43:43.097Z,100268.28
2019-06-10T17:46:14.496Z,100258.32
2019-06-10T17:48:43.982Z,100258.70
2019-06-10T17:51:13.362Z,100245.97
2019-06-10T17:53:42.858Z,100235.39
2019-06-10T17:56:13.326Z,100220.63
2019-06-10T17:58:53.288Z,100211.75
2019-06-10T18:01:13.977Z,100204.59
2019-06-10T18:03:43.369Z,100210.66
2019-06-10T18:06:13.449Z,100217.20
2019-06-10T18:08:42.999Z,100223.26
2019-06-10T18:11:12.912Z,100222.33
2019-06-10T18:13:42.824Z,100227.61
2019-06-10T18:16:13.119Z,100217.42
2019-06-10T18:18:42.805Z,100214.84
2019-06-10T18:21:12.679Z,100231.19
2019-06-10T18:23:43.418Z,100231.75
2019-06-10T18:26:13.086Z,100223.87
2019-06-10T18:29:00.911Z,100214.78
2019-06-10T18:31:13.536Z,100219.20
2019-06-10T18:33:43.028Z,100216.66
2019-06-10T18:36:12.416Z,100215.02
2019-06-10T18:38:43.390Z,100223.78
2019-06-10T18:41:13.011Z,100232.10
2019-06-10T18:43:42.365Z,100241.30
2019-06-10T18:46:12.776Z,100244.32
2019-06-10T18:48:43.160Z,100255.56
2019-06-10T18:51:12.799Z,100262.72
2019-06-10T18:53:42.724Z,100267.28
2019-06-10T18:56:13.285Z,100274.89
2019-06-10T18:58:42.787Z,100278.23
2019-06-10T19:01:12.583Z,100280.28
2019-06-10T19:03:42.956Z,100285.72
2019-06-10T19:06:12.813Z,100296.50
2019-06-10T19:08:44.365Z,100303.26
2019-06-10T19:11:13.362Z,100303.14
2019-06-10T19:13:43.625Z,100303.50
2019-06-10T19:16:13.312Z,100302.92
2019-06-10T19:18:43.305Z,100314.53
2019-06-10T19:21:13.881Z,100318.19
2019-06-10T19:23:44.000Z,100327.49
2019-06-10T19:26:13.743Z,100330.92
2019-06-10T19:28:45.262Z,100336.14
2019-06-10T19:31:14.291Z,100344.84
2019-06-10T19:33:45.133Z,100336.98
2019-06-10T19:36:14.877Z,100340.36
2019-06-10T19:38:44.467Z,100341.64
2019-06-10T19:41:13.886Z,100343.89
2019-06-10T19:43:45.394Z,100343.90
2019-06-10T19:46:15.873Z,100345.55
2019-06-10T19:48:56.928Z,100344.43
2019-06-10T19:51:16.521Z,100346.28
2019-06-10T19:53:45.974Z,100352.15
2019-06-10T19:56:15.527Z,100354.92
2019-06-10T19:58:46.446Z,100352.34
2019-06-10T20:01:16.060Z,100342.37
2019-06-10T20:03:47.054Z,100337.15
2019-06-10T20:06:17.036Z,100332.02
2019-06-10T20:08:47.051Z,100321.52
2019-06-10T20:11:17.085Z,100323.81
2019-06-10T20:14:06.549Z,100324.83
2019-06-10T20:16:35.979Z,100323.56
2019-06-10T20:19:05.681Z,100325.55
2019-06-10T20:21:36.016Z,100327.31
2019-06-10T20:24:05.804Z,100324.28
2019-06-10T20:26:36.548Z,100322.23
2019-06-10T20:29:06.186Z,100322.89
2019-06-10T20:31:35.850Z,100321.38
2019-06-10T20:34:05.302Z,100304.42
2019-06-10T20:36:35.653Z,100303.55
2019-06-10T20:39:08.025Z,100300.20
2019-06-10T20:41:37.457Z,100291.08
2019-06-10T20:44:06.854Z,100290.24
2019-06-10T20:46:36.206Z,100296.36
2019-06-10T20:49:05.576Z,100305.00
2019-06-10T20:51:48.653Z,100303.34
2019-06-10T20:54:05.988Z,100311.78
2019-06-10T20:56:35.359Z,100317.00
2019-06-10T20:59:04.884Z,100319.16
2019-06-10T21:01:34.254Z,100326.62
2019-06-10T21:04:03.926Z,100334.14
2019-06-10T21:06:35.405Z,100339.41
2019-06-10T21:09:08.180Z,100345.52
2019-06-10T21:11:39.862Z,100351.41
2019-06-10T21:14:09.285Z,100355.80
2019-06-10T21:16:39.899Z,100363.27
2019-06-10T21:19:09.265Z,100362.44
2019-06-10T21:21:38.622Z,100362.00
2019-06-10T21:24:07.994Z,100359.94
2019-06-10T21:26:37.376Z,100357.39
2019-06-10T21:29:06.777Z,100353.44
2019-06-10T21:31:36.144Z,100344.66
2019-06-10T21:34:05.499Z,100336.75
2019-06-10T21:36:34.864Z,100333.77
2019-06-10T21:39:05.922Z,100337.45
2019-06-10T21:41:35.271Z,100346.86
2019-06-10T21:44:04.692Z,100344.36
2019-06-10T21:46:34.173Z,100347.04
2019-06-10T21:49:03.554Z,100341.42
2019-06-10T21:51:34.704Z,100337.55
2019-06-10T21:54:05.130Z,100350.25
2019-06-10T21:56:34.520Z,100351.96
2019-06-10T21:59:03.895Z,100358.45
2019-06-10T22:01:33.460Z,100353.58
2019-06-10T22:04:04.572Z,100356.13
2019-06-10T22:06:34.118Z,100339.83
2019-06-10T22:09:06.397Z,100350.11
2019-06-10T22:11:35.754Z,100354.41
2019-06-10T22:14:05.382Z,100350.84
2019-06-10T22:16:34.753Z,100350.84
2019-06-10T22:19:04.213Z,100346.77
2019-06-10T22:21:33.524Z,100348.42
2019-06-10T22:24:02.908Z,100357.60
2019-06-10T22:26:32.402Z,100358.58
2019-06-10T22:29:01.743Z,100360.68
2019-06-10T22:31:32.616Z,100362.79
2019-06-10T22:34:03.375Z,100361.95
2019-06-10T22:36:32.929Z,100365.38
2019-06-10T22:39:03.261Z,100372.28
2019-06-10T22:41:34.491Z,100370.07
2019-06-10T22:44:03.937Z,100371.78
2019-06-10T22:46:33.323Z,100368.28
2019-06-10T22:49:03.136Z,100379.22
2019-06-10T22:51:33.079Z,100375.27
2019-06-10T22:54:03.460Z,100378.88
2019-06-10T22:56:34.112Z,100383.04
2019-06-10T22:59:03.684Z,100391.79
2019-06-10T23:01:37.986Z,100384.75
2019-06-10T23:04:04.306Z,100386.07
2019-06-10T23:06:34.075Z,100386.52
2019-06-10T23:09:04.555Z,100395.48
2019-06-10T23:11:34.199Z,100391.66
2019-06-10T23:14:03.610Z,100389.02
2019-06-10T23:16:33.060Z,100398.56
2019-06-10T23:19:03.030Z,100407.47
2019-06-10T23:21:33.491Z,100406.20
2019-06-10T23:24:03.288Z,100407.65
2019-06-10T23:26:33.344Z,100402.77
2019-06-10T23:29:03.712Z,100400.53
2019-06-10T23:31:46.212Z,100407.17
2019-06-10T23:34:04.256Z,100403.30
2019-06-10T23:36:34.627Z,100397.81
2019-06-10T23:39:04.789Z,100402.25
2019-06-10T23:41:34.132Z,100400.05
2019-06-10T23:44:04.851Z,100404.05
2019-06-10T23:46:35.167Z,100409.84
2019-06-10T23:49:04.787Z,100403.43
2019-06-10T23:51:34.259Z,100396.76
2019-06-10T23:54:06.087Z,100393.23
2019-06-10T23:56:34.792Z,100394.55
2019-06-10T23:59:04.816Z,100395.00
